sensor_id;sensor_type;location;lat;lon;timestamp;pressure;altitude;pressure_sealevel;temperature;humidity
21728;BME280;11026;50.560;17.852;2023-04-27T00:02:15;99771.50;;;3.30;91.57
21728;BME280;11026;50.560;17.852;2023-04-27T00:04:44;99780.34;;;3.18;92.21
21728;BME280;11026;50.560;17.852;2023-04-27T00:07:13;99773.28;;;3.27;91.74
21728;BME280;11026;50.560;17.852;2023-04-27T00:09:40;99769.91;;;3.15;92.44
21728;BME280;11026;50.560;17.852;2023-04-27T00:12:08;99775.91;;;3.24;92.06
21728;BME280;11026;50.560;17.852;2023-04-27T00:14:35;99775.16;;;3.14;92.38
21728;BME280;11026;50.560;17.852;2023-04-27T00:17:02;99771.69;;;3.13;92.57
21728;BME280;11026;50.560;17.852;2023-04-27T00:19:30;99771.59;;;3.19;92.69
21728;BME280;11026;50.560;17.852;2023-04-27T00:21:58;99769.13;;;3.07;92.90
21728;BME280;11026;50.560;17.852;2023-04-27T00:24:26;99771.69;;;3.09;92.99
21728;BME280;11026;50.560;17.852;2023-04-27T00:26:53;99782.28;;;2.98;93.60
21728;BME280;11026;50.560;17.852;2023-04-27T00:29:23;99779.53;;;3.09;93.46
21728;BME280;11026;50.560;17.852;2023-04-27T00:31:51;99783.56;;;3.40;91.47
21728;BME280;11026;50.560;17.852;2023-04-27T00:34:25;99775.00;;;3.29;90.77
21728;BME280;11026;50.560;17.852;2023-04-27T00:36:52;99782.22;;;3.04;91.72
21728;BME280;11026;50.560;17.852;2023-04-27T00:39:21;99787.31;;;3.16;92.13
21728;BME280;11026;50.560;17.852;2023-04-27T00:41:51;99784.97;;;2.89;93.85
21728;BME280;11026;50.560;17.852;2023-04-27T00:44:25;99788.69;;;2.60;96.01
21728;BME280;11026;50.560;17.852;2023-04-27T00:46:53;99793.97;;;2.51;97.73
21728;BME280;11026;50.560;17.852;2023-04-27T00:49:22;99788.81;;;2.43;98.66
21728;BME280;11026;50.560;17.852;2023-04-27T00:51:49;99802.63;;;2.59;98.24
21728;BME280;11026;50.560;17.852;2023-04-27T00:54:21;99801.03;;;2.40;98.59
21728;BME280;11026;50.560;17.852;2023-04-27T00:56:50;99791.41;;;2.50;98.58
21728;BME280;11026;50.560;17.852;2023-04-27T00:59:19;99797.56;;;2.38;99.17
21728;BME280;11026;50.560;17.852;2023-04-27T01:01:54;99795.78;;;2.43;99.38
21728;BME280;11026;50.560;17.852;2023-04-27T01:04:23;99803.72;;;2.26;99.32
21728;BME280;11026;50.560;17.852;2023-04-27T01:06:51;99804.53;;;2.33;99.89
21728;BME280;11026;50.560;17.852;2023-04-27T01:09:18;99797.66;;;2.22;99.92
21728;BME280;11026;50.560;17.852;2023-04-27T01:11:46;99795.06;;;2.22;100.00
21728;BME280;11026;50.560;17.852;2023-04-27T01:14:13;99804.75;;;1.99;100.00
21728;BME280;11026;50.560;17.852;2023-04-27T01:16:46;99804.66;;;2.16;100.00
21728;BME280;11026;50.560;17.852;2023-04-27T01:19:16;99808.25;;;1.95;100.00
21728;BME280;11026;50.560;17.852;2023-04-27T01:21:45;99799.47;;;2.08;100.00
21728;BME280;11026;50.560;17.852;2023-04-27T01:24:12;99797.69;;;2.15;100.00
21728;BME280;11026;50.560;17.852;2023-04-27T01:26:40;99805.63;;;1.95;100.00
21728;BME280;11026;50.560;17.852;2023-04-27T01:29:07;99793.44;;;1.97;100.00
21728;BME280;11026;50.560;17.852;2023-04-27T01:31:35;99802.13;;;2.02;100.00
21728;BME280;11026;50.560;17.852;2023-04-27T01:34:02;99794.34;;;1.90;100.00
21728;BME280;11026;50.560;17.852;2023-04-27T01:36:37;99798.78;;;1.71;100.00
21728;BME280;11026;50.560;17.852;2023-04-27T01:39:04;99799.69;;;1.64;100.00
21728;BME280;11026;50.560;17.852;2023-04-27T01:41:35;99798.81;;;1.57;100.00
21728;BME280;11026;50.560;17.852;2023-04-27T01:44:05;99808.41;;;1.52;100.00
21728;BME280;11026;50.560;17.852;2023-04-27T01:46:32;99807.56;;;1.47;100.00
21728;BME280;11026;50.560;17.852;2023-04-27T01:49:00;99804.13;;;1.25;100.00
21728;BME280;11026;50.560;17.852;2023-04-27T01:51:39;99800.66;;;1.23;100.00
21728;BME280;11026;50.560;17.852;2023-04-27T01:54:06;99796.28;;;1.30;100.00
21728;BME280;11026;50.560;17.852;2023-04-27T01:56:37;99794.56;;;1.35;100.00
21728;BME280;11026;50.560;17.852;2023-04-27T01:59:04;99792.81;;;1.43;100.00
21728;BME280;11026;50.560;17.852;2023-04-27T02:01:32;99800.59;;;1.47;100.00
21728;BME280;11026;50.560;17.852;2023-04-27T02:03:59;99807.47;;;1.71;100.00
21728;BME280;11026;50.560;17.852;2023-04-27T02:06:27;99801.41;;;1.63;100.00
21728;BME280;11026;50.560;17.852;2023-04-27T02:08:55;99806.72;;;1.39;100.00
21728;BME280;11026;50.560;17.852;2023-04-27T02:11:24;99810.19;;;1.32;100.00
21728;BME280;11026;50.560;17.852;2023-04-27T02:13:53;99811.03;;;1.34;100.00
21728;BME280;11026;50.560;17.852;2023-04-27T02:16:20;99811.94;;;1.30;100.00
21728;BME280;11026;50.560;17.852;2023-04-27T02:18:54;99800.63;;;1.34;100.00
21728;BME280;11026;50.560;17.852;2023-04-27T02:21:21;99800.59;;;1.44;100.00
21728;BME280;11026;50.560;17.852;2023-04-27T02:23:49;99804.09;;;1.39;100.00
21728;BME280;11026;50.560;17.852;2023-04-27T02:26:19;99799.78;;;1.29;100.00
21728;BME280;11026;50.560;17.852;2023-04-27T02:28:50;99801.50;;;1.36;100.00
21728;BME280;11026;50.560;17.852;2023-04-27T02:31:19;99805.84;;;1.37;100.00
21728;BME280;11026;50.560;17.852;2023-04-27T02:33:47;99798.91;;;1.31;100.00
21728;BME280;11026;50.560;17.852;2023-04-27T02:36:14;99806.72;;;1.36;100.00
21728;BME280;11026;50.560;17.852;2023-04-27T02:38:42;99807.56;;;1.47;100.00
21728;BME280;11026;50.560;17.852;2023-04-27T02:41:09;99811.91;;;1.48;100.00
21728;BME280;11026;50.560;17.852;2023-04-27T02:43:39;99806.69;;;1.51;100.00
21728;BME280;11026;50.560;17.852;2023-04-27T02:46:08;99810.19;;;1.35;100.00
21728;BME280;11026;50.560;17.852;2023-04-27T02:48:35;99802.34;;;1.38;100.00
21728;BME280;11026;50.560;17.852;2023-04-27T02:51:03;99807.56;;;1.30;100.00
21728;BME280;11026;50.560;17.852;2023-04-27T02:53:31;99805.84;;;1.37;100.00
21728;BME280;11026;50.560;17.852;2023-04-27T02:55:59;99821.47;;;1.41;100.00
21728;BME280;11026;50.560;17.852;2023-04-27T02:58:26;99814.53;;;1.40;100.00
21728;BME280;11026;50.560;17.852;2023-04-27T03:00:55;99808.41;;;1.46;100.00
21728;BME280;11026;50.560;17.852;2023-04-27T03:03:22;99814.47;;;1.50;100.00
21728;BME280;11026;50.560;17.852;2023-04-27T03:05:50;99806.63;;;1.60;100.00
21728;BME280;11026;50.560;17.852;2023-04-27T03:08:18;99816.13;;;1.80;100.00
21728;BME280;11026;50.560;17.852;2023-04-27T03:10:46;99810.88;;;1.90;100.00
21728;BME280;11026;50.560;17.852;2023-04-27T03:13:14;99815.19;;;1.90;100.00
21728;BME280;11026;50.560;17.852;2023-04-27T03:15:42;99819.59;;;1.86;100.00
21728;BME280;11026;50.560;17.852;2023-04-27T03:18:10;99818.69;;;1.98;100.00
21728;BME280;11026;50.560;17.852;2023-04-27T03:20:37;99821.25;;;2.03;100.00
21728;BME280;11026;50.560;17.852;2023-04-27T03:23:06;99818.69;;;1.92;100.00
21728;BME280;11026;50.560;17.852;2023-04-27T03:25:33;99823.84;;;2.10;100.00
21728;BME280;11026;50.560;17.852;2023-04-27T03:28:03;99823.84;;;2.04;100.00
21728;BME280;11026;50.560;17.852;2023-04-27T03:30:30;99825.56;;;2.05;100.00
21728;BME280;11026;50.560;17.852;2023-04-27T03:32:57;99828.22;;;2.02;100.00
21728;BME280;11026;50.560;17.852;2023-04-27T03:35:25;99831.66;;;2.10;100.00
21728;BME280;11026;50.560;17.852;2023-04-27T03:37:53;99826.44;;;2.10;100.00
21728;BME280;11026;50.560;17.852;2023-04-27T03:40:21;99833.28;;;2.31;100.00
21728;BME280;11026;50.560;17.852;2023-04-27T03:42:49;99837.63;;;2.31;100.00
21728;BME280;11026;50.560;17.852;2023-04-27T03:45:16;99831.50;;;2.36;100.00
21728;BME280;11026;50.560;17.852;2023-04-27T03:47:46;99842.75;;;2.44;100.00
21728;BME280;11026;50.560;17.852;2023-04-27T03:50:13;99839.31;;;2.39;100.00
21728;BME280;11026;50.560;17.852;2023-04-27T03:52:43;99844.50;;;2.47;100.00
21728;BME280;11026;50.560;17.852;2023-04-27T03:55:10;99847.97;;;2.44;100.00
21728;BME280;11026;50.560;17.852;2023-04-27T03:57:38;99852.28;;;2.58;100.00
21728;BME280;11026;50.560;17.852;2023-04-27T04:00:12;99847.00;;;2.64;100.00
21728;BME280;11026;50.560;17.852;2023-04-27T04:02:40;99846.16;;;2.60;99.60
21728;BME280;11026;50.560;17.852;2023-04-27T04:05:08;99854.88;;;2.59;99.51
21728;BME280;11026;50.560;17.852;2023-04-27T04:07:35;99853.97;;;2.60;98.71
21728;BME280;11026;50.560;17.852;2023-04-27T04:10:04;99858.28;;;2.67;98.68
21728;BME280;11026;50.560;17.852;2023-04-27T04:12:33;99854.84;;;2.62;98.42
21728;BME280;11026;50.560;17.852;2023-04-27T04:15:01;99863.50;;;2.74;97.66
21728;BME280;11026;50.560;17.852;2023-04-27T04:17:30;99866.09;;;2.69;97.95
21728;BME280;11026;50.560;17.852;2023-04-27T04:20:00;99865.19;;;2.78;97.47
21728;BME280;11026;50.560;17.852;2023-04-27T04:22:36;99865.13;;;2.87;97.53
21728;BME280;11026;50.560;17.852;2023-04-27T04:25:04;99873.84;;;2.86;97.06
21728;BME280;11026;50.560;17.852;2023-04-27T04:27:32;99873.69;;;3.04;96.42
21728;BME280;11026;50.560;17.852;2023-04-27T04:29:59;99867.63;;;2.99;96.39
21728;BME280;11026;50.560;17.852;2023-04-27T04:32:27;99878.00;;;3.13;96.07
21728;BME280;11026;50.560;17.852;2023-04-27T04:34:56;99874.56;;;3.03;96.53
21728;BME280;11026;50.560;17.852;2023-04-27T04:37:23;99878.91;;;3.07;96.61
21728;BME280;11026;50.560;17.852;2023-04-27T04:39:51;99876.31;;;3.03;96.93
21728;BME280;11026;50.560;17.852;2023-04-27T04:42:18;99874.56;;;3.03;97.48
21728;BME280;11026;50.560;17.852;2023-04-27T04:44:46;99884.09;;;3.10;97.43
21728;BME280;11026;50.560;17.852;2023-04-27T04:47:14;99882.44;;;3.00;95.97
21728;BME280;11026;50.560;17.852;2023-04-27T04:49:42;99890.19;;;3.11;96.14
21728;BME280;11026;50.560;17.852;2023-04-27T04:52:09;99893.63;;;3.16;94.82
21728;BME280;11026;50.560;17.852;2023-04-27T04:54:37;99892.69;;;3.26;94.55
21728;BME280;11026;50.560;17.852;2023-04-27T04:57:04;99897.91;;;3.28;93.82
21728;BME280;11026;50.560;17.852;2023-04-27T04:59:33;99896.16;;;3.30;92.78
21728;BME280;11026;50.560;17.852;2023-04-27T05:02:01;99909.91;;;3.50;91.95
21728;BME280;11026;50.560;17.852;2023-04-27T05:04:28;99908.16;;;3.51;90.94
21728;BME280;11026;50.560;17.852;2023-04-27T05:06:56;99910.69;;;3.58;91.61
21728;BME280;11026;50.560;17.852;2023-04-27T05:09:23;99906.34;;;3.57;91.62
21728;BME280;11026;50.560;17.852;2023-04-27T05:11:51;99908.84;;;3.73;90.69
21728;BME280;11026;50.560;17.852;2023-04-27T05:14:20;99914.75;;;3.90;90.52
21728;BME280;11026;50.560;17.852;2023-04-27T05:16:48;99910.47;;;3.80;91.88
21728;BME280;11026;50.560;17.852;2023-04-27T05:19:18;99913.09;;;3.80;92.08
21728;BME280;11026;50.560;17.852;2023-04-27T05:21:46;99918.25;;;3.89;91.69
21728;BME280;11026;50.560;17.852;2023-04-27T05:24:13;99911.03;;;4.08;91.10
21728;BME280;11026;50.560;17.852;2023-04-27T05:26:42;99907.44;;;4.18;89.90
21728;BME280;11026;50.560;17.852;2023-04-27T05:29:09;99912.56;;;4.29;89.58
21728;BME280;11026;50.560;17.852;2023-04-27T05:31:37;99915.78;;;4.49;89.96
21728;BME280;11026;50.560;17.852;2023-04-27T05:34:05;99914.63;;;4.72;87.11
21728;BME280;11026;50.560;17.852;2023-04-27T05:36:32;99922.41;;;4.75;84.24
21728;BME280;11026;50.560;17.852;2023-04-27T05:39:02;99920.59;;;4.80;83.15
21728;BME280;11026;50.560;17.852;2023-04-27T05:41:31;99921.06;;;5.08;84.39
21728;BME280;11026;50.560;17.852;2023-04-27T05:43:58;99927.06;;;5.16;82.20
21728;BME280;11026;50.560;17.852;2023-04-27T05:46:26;99925.94;;;5.31;79.10
21728;BME280;11026;50.560;17.852;2023-04-27T05:48:54;99929.06;;;5.53;79.50
21728;BME280;11026;50.560;17.852;2023-04-27T05:51:22;99929.56;;;5.73;76.13
21728;BME280;11026;50.560;17.852;2023-04-27T05:53:49;99933.00;;;5.77;75.06
21728;BME280;11026;50.560;17.852;2023-04-27T05:56:17;99932.84;;;5.86;72.20
21728;BME280;11026;50.560;17.852;2023-04-27T05:58:45;99932.50;;;6.07;74.61
21728;BME280;11026;50.560;17.852;2023-04-27T06:01:13;99927.78;;;6.23;72.01
21728;BME280;11026;50.560;17.852;2023-04-27T06:03:40;99931.25;;;6.25;70.74
21728;BME280;11026;50.560;17.852;2023-04-27T06:06:08;99932.53;;;6.48;66.83
21728;BME280;11026;50.560;17.852;2023-04-27T06:08:35;99941.69;;;6.28;68.44
21728;BME280;11026;50.560;17.852;2023-04-27T06:11:05;99940.47;;;6.45;70.32
21728;BME280;11026;50.560;17.852;2023-04-27T06:13:32;99932.53;;;6.48;67.84
21728;BME280;11026;50.560;17.852;2023-04-27T06:16:00;99921.88;;;6.55;67.32
21728;BME280;11026;50.560;17.852;2023-04-27T06:18:28;99926.75;;;6.74;65.17
21728;BME280;11026;50.560;17.852;2023-04-27T06:20:59;99927.44;;;6.82;64.43
21728;BME280;11026;50.560;17.852;2023-04-27T06:23:27;99933.31;;;6.93;65.01
21728;BME280;11026;50.560;17.852;2023-04-27T06:25:55;99934.00;;;7.01;63.29
21728;BME280;11026;50.560;17.852;2023-04-27T06:28:23;99931.94;;;7.14;64.50
21728;BME280;11026;50.560;17.852;2023-04-27T06:30:52;99934.72;;;7.08;64.44
21728;BME280;11026;50.560;17.852;2023-04-27T06:33:21;99938.13;;;7.11;63.60
21728;BME280;11026;50.560;17.852;2023-04-27T06:35:49;99935.63;;;7.07;62.60
21728;BME280;11026;50.560;17.852;2023-04-27T06:38:17;99935.81;;;7.36;62.56
21728;BME280;11026;50.560;17.852;2023-04-27T06:40:44;99939.97;;;7.45;62.88
21728;BME280;11026;50.560;17.852;2023-04-27T06:43:11;99939.22;;;7.74;62.34
21728;BME280;11026;50.560;17.852;2023-04-27T06:45:38;99941.78;;;7.77;60.41
21728;BME280;11026;50.560;17.852;2023-04-27T06:48:06;99942.66;;;7.78;61.64
21728;BME280;11026;50.560;17.852;2023-04-27T06:50:33;99930.28;;;7.81;61.50
21728;BME280;11026;50.560;17.852;2023-04-27T06:53:01;99930.00;;;7.92;60.69
21728;BME280;11026;50.560;17.852;2023-04-27T06:55:28;99938.63;;;7.97;59.77
21728;BME280;11026;50.560;17.852;2023-04-27T06:57:55;99939.97;;;7.79;61.15
21728;BME280;11026;50.560;17.852;2023-04-27T07:00:23;99941.56;;;7.52;60.58
21728;BME280;11026;50.560;17.852;2023-04-27T07:02:50;99936.97;;;7.59;60.39
21728;BME280;11026;50.560;17.852;2023-04-27T07:05:20;99935.97;;;7.64;63.00
21728;BME280;11026;50.560;17.852;2023-04-27T07:07:47;99927.38;;;7.91;61.36
21728;BME280;11026;50.560;17.852;2023-04-27T07:10:16;99927.50;;;7.86;60.39
21728;BME280;11026;50.560;17.852;2023-04-27T07:12:43;99921.00;;;7.99;60.71
21728;BME280;11026;50.560;17.852;2023-04-27T07:15:11;99926.84;;;8.10;59.31
21728;BME280;11026;50.560;17.852;2023-04-27T07:17:38;99920.94;;;8.33;59.18
21728;BME280;11026;50.560;17.852;2023-04-27T07:20:07;99918.75;;;8.49;57.07
21728;BME280;11026;50.560;17.852;2023-04-27T07:22:34;99915.19;;;8.50;57.19
21728;BME280;11026;50.560;17.852;2023-04-27T07:25:02;99923.38;;;8.41;58.25
21728;BME280;11026;50.560;17.852;2023-04-27T07:27:30;99922.44;;;8.44;57.04
21728;BME280;11026;50.560;17.852;2023-04-27T07:29:58;99917.91;;;8.47;57.55
21728;BME280;11026;50.560;17.852;2023-04-27T07:32:25;99920.47;;;8.80;56.30
21728;BME280;11026;50.560;17.852;2023-04-27T07:34:54;99923.75;;;8.88;55.24
21728;BME280;11026;50.560;17.852;2023-04-27T07:37:22;99928.25;;;8.84;55.41
21728;BME280;11026;50.560;17.852;2023-04-27T07:39:50;99926.22;;;8.65;55.55
21728;BME280;11026;50.560;17.852;2023-04-27T07:42:26;99930.94;;;8.83;57.43
21728;BME280;11026;50.560;17.852;2023-04-27T07:44:55;99922.56;;;8.69;55.15
21728;BME280;11026;50.560;17.852;2023-04-27T07:47:23;99924.22;;;9.01;55.13
21728;BME280;11026;50.560;17.852;2023-04-27T07:49:50;99927.53;;;9.34;55.20
21728;BME280;11026;50.560;17.852;2023-04-27T07:52:19;99920.88;;;9.50;52.94
21728;BME280;11026;50.560;17.852;2023-04-27T07:54:47;99922.25;;;9.60;53.90
21728;BME280;11026;50.560;17.852;2023-04-27T07:57:15;99925.00;;;9.57;52.47
21728;BME280;11026;50.560;17.852;2023-04-27T07:59:43;99917.31;;;9.76;53.44
21728;BME280;11026;50.560;17.852;2023-04-27T08:02:11;99916.69;;;9.95;52.37
21728;BME280;11026;50.560;17.852;2023-04-27T08:04:46;99922.88;;;9.94;51.75
21728;BME280;11026;50.560;17.852;2023-04-27T08:07:15;99924.13;;;10.08;51.08
21728;BME280;11026;50.560;17.852;2023-04-27T08:09:43;99929.03;;;10.19;51.46
21728;BME280;11026;50.560;17.852;2023-04-27T08:12:10;99929.94;;;10.43;51.24
21728;BME280;11026;50.560;17.852;2023-04-27T08:14:37;99930.16;;;10.61;51.26
21728;BME280;11026;50.560;17.852;2023-04-27T08:17:12;99925.84;;;10.81;50.24
21728;BME280;11026;50.560;17.852;2023-04-27T08:19:40;99933.75;;;10.59;48.26
21728;BME280;11026;50.560;17.852;2023-04-27T08:22:09;99938.06;;;10.39;48.43
21728;BME280;11026;50.560;17.852;2023-04-27T08:24:36;99933.25;;;10.25;48.99
21728;BME280;11026;50.560;17.852;2023-04-27T08:27:06;99932.44;;;10.23;49.42
21728;BME280;11026;50.560;17.852;2023-04-27T08:29:34;99929.28;;;10.12;50.43
21728;BME280;11026;50.560;17.852;2023-04-27T08:32:03;99933.44;;;9.69;51.02
21728;BME280;11026;50.560;17.852;2023-04-27T08:34:31;99938.69;;;9.70;52.17
21728;BME280;11026;50.560;17.852;2023-04-27T08:36:58;99935.69;;;9.54;52.51
21728;BME280;11026;50.560;17.852;2023-04-27T08:39:26;99935.59;;;9.31;53.28
21728;BME280;11026;50.560;17.852;2023-04-27T08:41:53;99942.34;;;9.11;53.57
21728;BME280;11026;50.560;17.852;2023-04-27T08:44:21;99940.03;;;9.29;52.75
21728;BME280;11026;50.560;17.852;2023-04-27T08:46:51;99935.16;;;9.17;52.88
21728;BME280;11026;50.560;17.852;2023-04-27T08:49:20;99941.97;;;9.24;53.86
21728;BME280;11026;50.560;17.852;2023-04-27T08:51:47;99942.19;;;9.44;54.13
21728;BME280;11026;50.560;17.852;2023-04-27T08:54:15;99938.94;;;9.63;54.90
21728;BME280;11026;50.560;17.852;2023-04-27T08:56:42;99946.94;;;9.33;51.68
21728;BME280;11026;50.560;17.852;2023-04-27T08:59:15;99953.03;;;9.61;51.88
21728;BME280;11026;50.560;17.852;2023-04-27T09:01:45;99955.31;;;9.19;53.22
21728;BME280;11026;50.560;17.852;2023-04-27T09:04:17;99952.94;;;9.10;52.95
21728;BME280;11026;50.560;17.852;2023-04-27T09:06:46;99963.94;;;8.96;53.26
21728;BME280;11026;50.560;17.852;2023-04-27T09:09:22;99958.56;;;8.99;55.17
21728;BME280;11026;50.560;17.852;2023-04-27T09:11:50;99959.03;;;8.84;54.64
21728;BME280;11026;50.560;17.852;2023-04-27T09:14:19;99962.75;;;8.77;53.97
21728;BME280;11026;50.560;17.852;2023-04-27T09:16:56;99960.00;;;9.09;52.13
21728;BME280;11026;50.560;17.852;2023-04-27T09:19:27;99958.34;;;9.33;52.07
21728;BME280;11026;50.560;17.852;2023-04-27T09:22:08;99952.09;;;9.64;51.06
21728;BME280;11026;50.560;17.852;2023-04-27T09:24:37;99952.25;;;9.59;50.94
21728;BME280;11026;50.560;17.852;2023-04-27T09:27:06;99945.72;;;9.70;52.17
21728;BME280;11026;50.560;17.852;2023-04-27T09:29:36;99950.69;;;9.26;50.92
21728;BME280;11026;50.560;17.852;2023-04-27T09:32:14;99946.53;;;9.72;50.59
21728;BME280;11026;50.560;17.852;2023-04-27T09:34:44;99944.66;;;10.00;49.79
21728;BME280;11026;50.560;17.852;2023-04-27T09:37:11;99942.31;;;10.18;49.29
21728;BME280;11026;50.560;17.852;2023-04-27T09:39:41;99948.22;;;10.24;50.31
21728;BME280;11026;50.560;17.852;2023-04-27T09:42:11;99948.06;;;9.79;50.48
21728;BME280;11026;50.560;17.852;2023-04-27T09:44:38;99950.44;;;10.12;49.49
21728;BME280;11026;50.560;17.852;2023-04-27T09:47:06;99948.63;;;10.14;50.19
21728;BME280;11026;50.560;17.852;2023-04-27T09:49:35;99938.34;;;10.04;50.04
21728;BME280;11026;50.560;17.852;2023-04-27T09:52:03;99944.66;;;10.00;51.85
21728;BME280;11026;50.560;17.852;2023-04-27T09:54:32;99959.22;;;9.87;51.11
21728;BME280;11026;50.560;17.852;2023-04-27T10:00:02;99954.13;;;10.07;50.03
21728;BME280;11026;50.560;17.852;2023-04-27T10:02:44;99956.34;;;9.95;50.44
21728;BME280;11026;50.560;17.852;2023-04-27T10:08:33;99961.34;;;9.51;51.46
21728;BME280;11026;50.560;17.852;2023-04-27T10:11:15;99952.94;;;9.65;51.10
21728;BME280;11026;50.560;17.852;2023-04-27T10:13:52;99953.63;;;9.96;48.85
21728;BME280;11026;50.560;17.852;2023-04-27T10:16:21;99953.94;;;9.87;50.05
21728;BME280;11026;50.560;17.852;2023-04-27T10:18:55;99954.97;;;9.83;50.33
21728;BME280;11026;50.560;17.852;2023-04-27T10:21:23;99954.81;;;9.88;52.10
21728;BME280;11026;50.560;17.852;2023-04-27T10:23:51;99956.09;;;9.76;51.46
21728;BME280;11026;50.560;17.852;2023-04-27T10:26:27;99960.34;;;9.27;50.14
21728;BME280;11026;50.560;17.852;2023-04-27T10:29:04;99963.94;;;8.96;53.04
21728;BME280;11026;50.560;17.852;2023-04-27T10:31:33;99957.03;;;8.92;55.43
21728;BME280;11026;50.560;17.852;2023-04-27T10:34:15;99962.31;;;9.20;54.65
21728;BME280;11026;50.560;17.852;2023-04-27T10:36:47;99963.56;;;9.36;53.56
21728;BME280;11026;50.560;17.852;2023-04-27T10:39:20;99955.47;;;9.41;53.72
21728;BME280;11026;50.560;17.852;2023-04-27T10:42:12;99961.81;;;9.62;52.35
21728;BME280;11026;50.560;17.852;2023-04-27T10:44:40;99956.28;;;9.70;51.84
21728;BME280;11026;50.560;17.852;2023-04-27T10:47:16;99964.44;;;9.90;49.43
21728;BME280;11026;50.560;17.852;2023-04-27T10:49:45;99959.66;;;9.48;52.04
21728;BME280;11026;50.560;17.852;2023-04-27T10:52:13;99964.88;;;9.22;50.98
21728;BME280;11026;50.560;17.852;2023-04-27T10:54:45;99962.59;;;9.66;51.19
21728;BME280;11026;50.560;17.852;2023-04-27T10:57:12;99961.94;;;9.59;50.37
21728;BME280;11026;50.560;17.852;2023-04-27T10:59:48;99959.47;;;9.54;49.77
21728;BME280;11026;50.560;17.852;2023-04-27T11:02:16;99956.69;;;9.57;50.75
21728;BME280;11026;50.560;17.852;2023-04-27T11:04:45;99958.25;;;9.90;50.21
21728;BME280;11026;50.560;17.852;2023-04-27T11:07:26;99960.25;;;10.34;50.11
21728;BME280;11026;50.560;17.852;2023-04-27T11:09:55;99961.81;;;10.64;48.53
21728;BME280;11026;50.560;17.852;2023-04-27T11:12:22;99959.13;;;10.40;46.46
21728;BME280;11026;50.560;17.852;2023-04-27T11:14:56;99955.81;;;10.35;48.48
21728;BME280;11026;50.560;17.852;2023-04-27T11:17:29;99959.41;;;10.57;45.92
21728;BME280;11026;50.560;17.852;2023-04-27T11:19:56;99952.59;;;10.97;47.03
21728;BME280;11026;50.560;17.852;2023-04-27T11:22:24;99963.38;;;11.15;45.18
21728;BME280;11026;50.560;17.852;2023-04-27T11:24:52;99958.25;;;11.32;46.31
21728;BME280;11026;50.560;17.852;2023-04-27T11:27:21;99949.34;;;11.56;43.47
21728;BME280;11026;50.560;17.852;2023-04-27T11:29:50;99960.94;;;11.74;42.55
21728;BME280;11026;50.560;17.852;2023-04-27T11:32:18;99958.41;;;11.71;44.03
21728;BME280;11026;50.560;17.852;2023-04-27T11:34:50;99956.69;;;11.92;43.50
21728;BME280;11026;50.560;17.852;2023-04-27T11:37:23;99960.59;;;11.18;46.34
21728;BME280;11026;50.560;17.852;2023-04-27T11:39:52;99971.59;;;10.85;45.10
21728;BME280;11026;50.560;17.852;2023-04-27T11:42:25;99967.53;;;10.51;46.30
21728;BME280;11026;50.560;17.852;2023-04-27T11:44:59;99962.22;;;10.28;47.23
21728;BME280;11026;50.560;17.852;2023-04-27T11:47:29;99956.47;;;10.42;45.30
21728;BME280;11026;50.560;17.852;2023-04-27T11:49:59;99963.22;;;10.49;47.85
21728;BME280;11026;50.560;17.852;2023-04-27T11:52:38;99959.81;;;10.70;45.37
21728;BME280;11026;50.560;17.852;2023-04-27T11:55:10;99969.03;;;10.35;47.91
21728;BME280;11026;50.560;17.852;2023-04-27T11:57:42;99966.78;;;10.23;47.22
21728;BME280;11026;50.560;17.852;2023-04-27T12:00:09;99964.31;;;10.18;47.10
21728;BME280;11026;50.560;17.852;2023-04-27T12:02:37;99955.81;;;10.10;46.76
21728;BME280;11026;50.560;17.852;2023-04-27T12:05:06;99962.81;;;10.11;45.95
21728;BME280;11026;50.560;17.852;2023-04-27T12:07:35;99962.06;;;10.57;45.47
21728;BME280;11026;50.560;17.852;2023-04-27T12:10:02;99960.28;;;10.56;46.13
21728;BME280;11026;50.560;17.852;2023-04-27T12:12:30;99958.22;;;10.88;47.52
21728;BME280;11026;50.560;17.852;2023-04-27T12:15:03;99960.13;;;10.84;46.81
21728;BME280;11026;50.560;17.852;2023-04-27T12:17:30;99962.34;;;10.95;45.93
21728;BME280;11026;50.560;17.852;2023-04-27T12:19:58;99957.75;;;11.00;47.65
21728;BME280;11026;50.560;17.852;2023-04-27T12:22:26;99966.91;;;10.45;47.46
21728;BME280;11026;50.560;17.852;2023-04-27T12:24:53;99968.00;;;10.14;49.39
21728;BME280;11026;50.560;17.852;2023-04-27T12:27:21;99968.34;;;10.30;49.57
21728;BME280;11026;50.560;17.852;2023-04-27T12:29:48;99967.94;;;10.16;49.20
21728;BME280;11026;50.560;17.852;2023-04-27T12:32:15;99972.91;;;10.73;49.22
21728;BME280;11026;50.560;17.852;2023-04-27T12:34:45;99958.78;;;10.96;48.18
21728;BME280;11026;50.560;17.852;2023-04-27T12:37:13;99963.31;;;11.38;46.56
21728;BME280;11026;50.560;17.852;2023-04-27T12:39:40;99958.72;;;11.64;46.01
21728;BME280;11026;50.560;17.852;2023-04-27T12:42:10;99957.06;;;11.83;45.64
21728;BME280;11026;50.560;17.852;2023-04-27T12:44:37;99952.03;;;12.18;45.86
21728;BME280;11026;50.560;17.852;2023-04-27T12:47:05;99957.63;;;12.12;45.63
21728;BME280;11026;50.560;17.852;2023-04-27T12:49:32;99953.31;;;12.09;45.39
21728;BME280;11026;50.560;17.852;2023-04-27T12:52:00;99954.41;;;12.03;45.29
21728;BME280;11026;50.560;17.852;2023-04-27T12:54:27;99948.91;;;11.88;45.71
21728;BME280;11026;50.560;17.852;2023-04-27T12:56:55;99958.97;;;10.92;46.74
21728;BME280;11026;50.560;17.852;2023-04-27T12:59:24;99954.63;;;11.35;46.69
21728;BME280;11026;50.560;17.852;2023-04-27T13:01:51;99961.75;;;11.11;48.24
21728;BME280;11026;50.560;17.852;2023-04-27T13:04:19;99951.38;;;10.82;47.78
21728;BME280;11026;50.560;17.852;2023-04-27T13:06:48;99956.25;;;11.17;48.09
21728;BME280;11026;50.560;17.852;2023-04-27T13:09:22;99962.03;;;11.26;49.20
21728;BME280;11026;50.560;17.852;2023-04-27T13:11:49;99952.75;;;11.58;47.94